Etusivu
METAR-TAF:

METAR-TAF

Lentoasemat :

Scappoose Industrial Airpark

Scappoose, Oregon, Yhdysvallat

Leveyspiiri: 45-46-09N, Pituuspiiri: 122-51-44W, korkeus merenpinnasta: 16 m

Tämänhetkinen sää

Tämä raportti tehtiin 54 minuuttia sitten, kello 07.53 UTC
tyyntä
Lämpötila 7°C
Kosteus 81%
Ilmanpaine 1027 hPa
Näkyvyys: 16.1 km
selkeää

METAR: KSPB 220753Z AUTO 00000KT 10SM CLR 07/04 A3032 RMK AO2 SLP268 T00670044 401720050

Aika: 01:47 (08:47 UTC)


TAF: puuttuu

Säähavainnot ja -ennusteet yli 4000 lentoasemalta (METAR- ja TAF-raportit).

Käytössä olevat sääasemat on merkitty karttaan keltaisilla ja punaisilla pisteillä.

Aseta hiiri pisteen päälle nähdäksesi sääaseman nimen.

Klikkaa sitten nähdäksesi säähavainnot ja -ennusteet.

Kartan vaihtaminen: klikkaa mustalla rastilla varustettuja vihreitä pisteitä, niin voit zoomata sisään; viivalla varustettua vihreää pistettä, niin voit zoomata ulos tai vihreitä nuolia, niin pääset viereisille kartoille.


METAR-TAF: